Broad Blunsdon, United Kingdom
Current Conditions -  °F | °C
As of 11:18 PM on Saturday 25 Oct 2014 (Local Time) from EGVA Reporting Station
Overcast Overcast  
Wind Chill: 12°   Ceiling: 2600
Heat Index: 12°   Visibility: 6mi
Dew Point:   Wind: 12mph
Humidity: 82%   Direction: 230°SW
Pressure: 30.12"   Gusts: NA
Location:  51.61°N, 1.78°W
Report Text: EGVA 252218Z AUTO 23010KT 9999 SCT021 BKN026 OVC034 12/09 A3012 RMK AO2 CIG 021V026
Loading
Personal Weather Stations






























Interactive Weather Map
Tropical Storm Tracking
New forecast layout! Learn more

10-Day Weather Forecast

Advertisements
Track Severe Weather on mobile